sensor_id;sensor_type;location;lat;lon;timestamp;P1;durP1;ratioP1;P2;durP2;ratioP2
21420;SDS011;10871;50.144;8.428;2022-08-19T00:01:23;20.88;;;15.98;;
21420;SDS011;10871;50.144;8.428;2022-08-19T00:03:57;18.63;;;16.00;;
21420;SDS011;10871;50.144;8.428;2022-08-19T00:06:24;17.92;;;16.02;;
21420;SDS011;10871;50.144;8.428;2022-08-19T00:08:50;17.85;;;15.90;;
21420;SDS011;10871;50.144;8.428;2022-08-19T00:11:17;18.08;;;15.93;;
21420;SDS011;10871;50.144;8.428;2022-08-19T00:13:51;19.02;;;15.50;;
21420;SDS011;10871;50.144;8.428;2022-08-19T00:16:17;19.88;;;16.70;;
21420;SDS011;10871;50.144;8.428;2022-08-19T00:21:18;16.90;;;14.95;;
21420;SDS011;10871;50.144;8.428;2022-08-19T00:23:44;19.85;;;16.02;;
21420;SDS011;10871;50.144;8.428;2022-08-19T00:26:10;18.27;;;15.82;;
21420;SDS011;10871;50.144;8.428;2022-08-19T00:28:37;17.17;;;15.38;;
21420;SDS011;10871;50.144;8.428;2022-08-19T00:31:04;18.75;;;15.48;;
21420;SDS011;10871;50.144;8.428;2022-08-19T00:33:31;16.45;;;14.68;;
21420;SDS011;10871;50.144;8.428;2022-08-19T00:36:00;16.33;;;14.05;;
21420;SDS011;10871;50.144;8.428;2022-08-19T00:38:27;16.40;;;14.70;;
21420;SDS011;10871;50.144;8.428;2022-08-19T00:41:03;15.98;;;14.18;;
21420;SDS011;10871;50.144;8.428;2022-08-19T00:43:30;17.65;;;14.23;;
21420;SDS011;10871;50.144;8.428;2022-08-19T00:45:56;20.50;;;14.45;;
21420;SDS011;10871;50.144;8.428;2022-08-19T00:48:23;15.70;;;14.00;;
21420;SDS011;10871;50.144;8.428;2022-08-19T00:50:49;15.65;;;13.80;;
21420;SDS011;10871;50.144;8.428;2022-08-19T00:53:20;15.38;;;13.65;;
21420;SDS011;10871;50.144;8.428;2022-08-19T00:55:48;17.48;;;14.40;;
21420;SDS011;10871;50.144;8.428;2022-08-19T00:58:18;15.75;;;14.00;;
21420;SDS011;10871;50.144;8.428;2022-08-19T01:00:45;17.33;;;14.82;;
21420;SDS011;10871;50.144;8.428;2022-08-19T01:03:14;18.20;;;14.70;;
21420;SDS011;10871;50.144;8.428;2022-08-19T01:05:41;18.00;;;14.65;;
21420;SDS011;10871;50.144;8.428;2022-08-19T01:08:08;17.70;;;14.07;;
21420;SDS011;10871;50.144;8.428;2022-08-19T01:10:39;19.25;;;15.43;;
21420;SDS011;10871;50.144;8.428;2022-08-19T01:13:06;18.10;;;15.27;;
21420;SDS011;10871;50.144;8.428;2022-08-19T01:15:34;16.70;;;14.65;;
21420;SDS011;10871;50.144;8.428;2022-08-19T01:18:03;18.83;;;15.90;;
21420;SDS011;10871;50.144;8.428;2022-08-19T01:20:30;17.65;;;14.95;;
21420;SDS011;10871;50.144;8.428;2022-08-19T01:22:57;19.85;;;17.33;;
21420;SDS011;10871;50.144;8.428;2022-08-19T01:25:24;19.83;;;16.55;;
21420;SDS011;10871;50.144;8.428;2022-08-19T01:27:54;20.20;;;15.85;;
21420;SDS011;10871;50.144;8.428;2022-08-19T01:30:33;17.95;;;16.05;;
21420;SDS011;10871;50.144;8.428;2022-08-19T01:33:00;18.83;;;15.98;;
21420;SDS011;10871;50.144;8.428;2022-08-19T01:35:28;19.48;;;16.90;;
21420;SDS011;10871;50.144;8.428;2022-08-19T01:37:56;21.75;;;17.02;;
21420;SDS011;10871;50.144;8.428;2022-08-19T01:40:25;19.52;;;17.27;;
21420;SDS011;10871;50.144;8.428;2022-08-19T01:42:52;20.02;;;17.33;;
21420;SDS011;10871;50.144;8.428;2022-08-19T01:45:20;20.45;;;17.27;;
21420;SDS011;10871;50.144;8.428;2022-08-19T01:47:46;18.27;;;16.33;;
21420;SDS011;10871;50.144;8.428;2022-08-19T01:50:27;21.80;;;16.58;;
21420;SDS011;10871;50.144;8.428;2022-08-19T01:52:53;19.27;;;17.27;;
21420;SDS011;10871;50.144;8.428;2022-08-19T01:55:31;18.67;;;16.52;;
21420;SDS011;10871;50.144;8.428;2022-08-19T01:57:58;20.30;;;17.90;;
21420;SDS011;10871;50.144;8.428;2022-08-19T02:00:26;18.60;;;16.30;;
21420;SDS011;10871;50.144;8.428;2022-08-19T02:02:53;18.55;;;16.60;;
21420;SDS011;10871;50.144;8.428;2022-08-19T02:05:20;21.63;;;17.13;;
21420;SDS011;10871;50.144;8.428;2022-08-19T02:07:47;19.38;;;16.45;;
21420;SDS011;10871;50.144;8.428;2022-08-19T02:10:16;18.38;;;16.40;;
21420;SDS011;10871;50.144;8.428;2022-08-19T02:12:43;18.30;;;15.45;;
21420;SDS011;10871;50.144;8.428;2022-08-19T02:15:10;19.08;;;16.42;;
21420;SDS011;10871;50.144;8.428;2022-08-19T02:17:37;18.60;;;16.40;;
21420;SDS011;10871;50.144;8.428;2022-08-19T02:20:03;19.10;;;17.02;;
21420;SDS011;10871;50.144;8.428;2022-08-19T02:22:31;19.90;;;16.88;;
21420;SDS011;10871;50.144;8.428;2022-08-19T02:24:57;22.02;;;17.20;;
21420;SDS011;10871;50.144;8.428;2022-08-19T02:27:23;20.95;;;17.88;;
21420;SDS011;10871;50.144;8.428;2022-08-19T02:29:50;19.95;;;17.85;;
21420;SDS011;10871;50.144;8.428;2022-08-19T02:32:17;19.65;;;17.55;;
21420;SDS011;10871;50.144;8.428;2022-08-19T02:34:48;19.85;;;17.73;;
21420;SDS011;10871;50.144;8.428;2022-08-19T02:37:15;24.55;;;19.52;;
21420;SDS011;10871;50.144;8.428;2022-08-19T02:40:00;23.65;;;19.25;;
21420;SDS011;10871;50.144;8.428;2022-08-19T02:42:28;24.42;;;20.48;;
21420;SDS011;10871;50.144;8.428;2022-08-19T02:44:55;23.33;;;19.52;;
21420;SDS011;10871;50.144;8.428;2022-08-19T02:47:21;23.45;;;20.95;;
21420;SDS011;10871;50.144;8.428;2022-08-19T02:49:48;26.20;;;21.58;;
21420;SDS011;10871;50.144;8.428;2022-08-19T02:52:16;27.45;;;21.35;;
21420;SDS011;10871;50.144;8.428;2022-08-19T02:54:42;28.42;;;22.42;;
21420;SDS011;10871;50.144;8.428;2022-08-19T02:57:09;27.45;;;22.33;;
21420;SDS011;10871;50.144;8.428;2022-08-19T02:59:36;27.25;;;24.00;;
21420;SDS011;10871;50.144;8.428;2022-08-19T03:02:02;30.05;;;25.10;;
21420;SDS011;10871;50.144;8.428;2022-08-19T03:04:29;28.73;;;24.73;;
21420;SDS011;10871;50.144;8.428;2022-08-19T03:06:55;29.10;;;24.38;;
21420;SDS011;10871;50.144;8.428;2022-08-19T03:09:36;26.10;;;23.13;;
21420;SDS011;10871;50.144;8.428;2022-08-19T03:12:03;27.40;;;23.00;;
21420;SDS011;10871;50.144;8.428;2022-08-19T03:14:33;26.35;;;22.75;;
21420;SDS011;10871;50.144;8.428;2022-08-19T03:16:59;24.92;;;20.73;;
21420;SDS011;10871;50.144;8.428;2022-08-19T03:19:26;25.95;;;20.52;;
21420;SDS011;10871;50.144;8.428;2022-08-19T03:21:53;25.83;;;20.42;;
21420;SDS011;10871;50.144;8.428;2022-08-19T03:24:21;23.58;;;19.55;;
21420;SDS011;10871;50.144;8.428;2022-08-19T03:26:53;22.80;;;20.13;;
21420;SDS011;10871;50.144;8.428;2022-08-19T03:29:24;23.70;;;21.05;;
21420;SDS011;10871;50.144;8.428;2022-08-19T03:31:56;23.98;;;20.17;;
21420;SDS011;10871;50.144;8.428;2022-08-19T03:34:24;25.73;;;21.92;;
21420;SDS011;10871;50.144;8.428;2022-08-19T03:36:53;25.73;;;21.58;;
21420;SDS011;10871;50.144;8.428;2022-08-19T03:39:20;26.88;;;22.30;;
21420;SDS011;10871;50.144;8.428;2022-08-19T03:41:47;26.25;;;21.35;;
21420;SDS011;10871;50.144;8.428;2022-08-19T03:44:36;26.15;;;22.70;;
21420;SDS011;10871;50.144;8.428;2022-08-19T03:47:04;29.35;;;23.75;;
21420;SDS011;10871;50.144;8.428;2022-08-19T03:49:31;29.63;;;24.92;;
21420;SDS011;10871;50.144;8.428;2022-08-19T03:51:59;28.30;;;24.48;;
21420;SDS011;10871;50.144;8.428;2022-08-19T03:54:31;27.70;;;24.70;;
21420;SDS011;10871;50.144;8.428;2022-08-19T03:56:57;30.52;;;24.77;;
21420;SDS011;10871;50.144;8.428;2022-08-19T03:59:25;28.25;;;24.75;;
21420;SDS011;10871;50.144;8.428;2022-08-19T04:01:56;28.25;;;25.17;;
21420;SDS011;10871;50.144;8.428;2022-08-19T04:04:23;29.80;;;24.48;;
21420;SDS011;10871;50.144;8.428;2022-08-19T04:06:54;28.65;;;22.98;;
21420;SDS011;10871;50.144;8.428;2022-08-19T04:09:20;27.60;;;23.83;;
21420;SDS011;10871;50.144;8.428;2022-08-19T04:11:48;24.90;;;22.23;;
21420;SDS011;10871;50.144;8.428;2022-08-19T04:14:16;28.65;;;22.67;;
21420;SDS011;10871;50.144;8.428;2022-08-19T04:16:43;27.58;;;22.83;;
21420;SDS011;10871;50.144;8.428;2022-08-19T04:19:10;27.45;;;21.65;;
21420;SDS011;10871;50.144;8.428;2022-08-19T04:21:37;24.00;;;21.30;;
21420;SDS011;10871;50.144;8.428;2022-08-19T04:24:04;23.13;;;20.63;;
21420;SDS011;10871;50.144;8.428;2022-08-19T04:26:32;22.92;;;19.52;;
21420;SDS011;10871;50.144;8.428;2022-08-19T04:28:59;21.98;;;19.65;;
21420;SDS011;10871;50.144;8.428;2022-08-19T04:31:27;22.73;;;19.63;;
21420;SDS011;10871;50.144;8.428;2022-08-19T04:33:55;20.58;;;18.08;;
21420;SDS011;10871;50.144;8.428;2022-08-19T04:36:24;23.30;;;20.33;;
21420;SDS011;10871;50.144;8.428;2022-08-19T04:38:53;21.55;;;19.23;;
21420;SDS011;10871;50.144;8.428;2022-08-19T04:41:19;21.02;;;18.85;;
21420;SDS011;10871;50.144;8.428;2022-08-19T04:44:04;24.55;;;19.45;;
21420;SDS011;10871;50.144;8.428;2022-08-19T04:46:31;23.20;;;20.20;;
21420;SDS011;10871;50.144;8.428;2022-08-19T04:49:17;21.48;;;19.27;;
21420;SDS011;10871;50.144;8.428;2022-08-19T04:51:45;21.38;;;19.08;;
21420;SDS011;10871;50.144;8.428;2022-08-19T04:54:11;24.25;;;19.90;;
21420;SDS011;10871;50.144;8.428;2022-08-19T04:56:39;24.65;;;21.75;;
21420;SDS011;10871;50.144;8.428;2022-08-19T04:59:05;25.45;;;22.05;;
21420;SDS011;10871;50.144;8.428;2022-08-19T05:01:32;25.95;;;21.17;;
21420;SDS011;10871;50.144;8.428;2022-08-19T05:04:00;23.58;;;20.10;;
21420;SDS011;10871;50.144;8.428;2022-08-19T05:06:30;23.52;;;19.45;;
21420;SDS011;10871;50.144;8.428;2022-08-19T05:09:00;24.13;;;19.23;;
21420;SDS011;10871;50.144;8.428;2022-08-19T05:11:28;22.15;;;18.33;;
21420;SDS011;10871;50.144;8.428;2022-08-19T05:13:55;20.60;;;18.40;;
21420;SDS011;10871;50.144;8.428;2022-08-19T05:16:22;21.67;;;19.17;;
21420;SDS011;10871;50.144;8.428;2022-08-19T05:18:49;20.85;;;18.67;;
21420;SDS011;10871;50.144;8.428;2022-08-19T05:21:34;22.02;;;19.73;;
21420;SDS011;10871;50.144;8.428;2022-08-19T05:24:20;22.00;;;19.48;;
21420;SDS011;10871;50.144;8.428;2022-08-19T05:26:47;21.38;;;18.95;;
21420;SDS011;10871;50.144;8.428;2022-08-19T05:29:16;22.70;;;19.00;;
21420;SDS011;10871;50.144;8.428;2022-08-19T05:31:43;21.10;;;19.02;;
21420;SDS011;10871;50.144;8.428;2022-08-19T05:34:10;23.98;;;19.73;;
21420;SDS011;10871;50.144;8.428;2022-08-19T05:36:45;22.48;;;19.63;;
21420;SDS011;10871;50.144;8.428;2022-08-19T05:39:13;23.35;;;19.52;;
21420;SDS011;10871;50.144;8.428;2022-08-19T05:41:43;19.63;;;17.52;;
21420;SDS011;10871;50.144;8.428;2022-08-19T05:44:10;21.75;;;19.30;;
21420;SDS011;10871;50.144;8.428;2022-08-19T05:46:37;22.30;;;19.50;;
21420;SDS011;10871;50.144;8.428;2022-08-19T05:49:04;20.92;;;18.73;;
21420;SDS011;10871;50.144;8.428;2022-08-19T05:51:32;20.90;;;17.73;;
21420;SDS011;10871;50.144;8.428;2022-08-19T05:54:00;20.17;;;17.13;;
21420;SDS011;10871;50.144;8.428;2022-08-19T05:56:27;20.65;;;16.95;;
21420;SDS011;10871;50.144;8.428;2022-08-19T05:58:53;19.23;;;17.08;;
21420;SDS011;10871;50.144;8.428;2022-08-19T06:01:20;21.48;;;18.00;;
21420;SDS011;10871;50.144;8.428;2022-08-19T06:03:46;20.90;;;18.17;;
21420;SDS011;10871;50.144;8.428;2022-08-19T06:06:15;19.95;;;17.90;;
21420;SDS011;10871;50.144;8.428;2022-08-19T06:08:42;17.77;;;15.98;;
21420;SDS011;10871;50.144;8.428;2022-08-19T06:11:18;20.52;;;18.15;;
21420;SDS011;10871;50.144;8.428;2022-08-19T06:13:45;17.52;;;15.82;;
21420;SDS011;10871;50.144;8.428;2022-08-19T06:16:13;19.98;;;16.70;;
21420;SDS011;10871;50.144;8.428;2022-08-19T06:18:46;19.50;;;16.95;;
21420;SDS011;10871;50.144;8.428;2022-08-19T06:21:13;17.98;;;16.17;;
21420;SDS011;10871;50.144;8.428;2022-08-19T06:23:39;19.60;;;16.23;;
21420;SDS011;10871;50.144;8.428;2022-08-19T06:26:07;19.23;;;15.68;;
21420;SDS011;10871;50.144;8.428;2022-08-19T06:28:37;18.60;;;15.40;;
21420;SDS011;10871;50.144;8.428;2022-08-19T06:31:08;17.58;;;14.52;;
21420;SDS011;10871;50.144;8.428;2022-08-19T06:33:35;15.82;;;14.07;;
21420;SDS011;10871;50.144;8.428;2022-08-19T06:36:01;15.88;;;14.18;;
21420;SDS011;10871;50.144;8.428;2022-08-19T06:38:28;15.07;;;13.57;;
21420;SDS011;10871;50.144;8.428;2022-08-19T06:41:04;18.52;;;14.10;;
21420;SDS011;10871;50.144;8.428;2022-08-19T06:43:33;15.77;;;12.85;;
21420;SDS011;10871;50.144;8.428;2022-08-19T06:46:00;14.75;;;12.55;;
21420;SDS011;10871;50.144;8.428;2022-08-19T06:48:27;14.55;;;12.85;;
21420;SDS011;10871;50.144;8.428;2022-08-19T06:50:54;14.43;;;12.10;;
21420;SDS011;10871;50.144;8.428;2022-08-19T06:53:20;12.13;;;10.93;;
21420;SDS011;10871;50.144;8.428;2022-08-19T06:55:48;12.25;;;10.95;;
21420;SDS011;10871;50.144;8.428;2022-08-19T06:58:23;12.48;;;11.32;;
21420;SDS011;10871;50.144;8.428;2022-08-19T07:00:51;13.70;;;11.38;;
21420;SDS011;10871;50.144;8.428;2022-08-19T07:03:18;12.38;;;10.98;;
21420;SDS011;10871;50.144;8.428;2022-08-19T07:05:44;11.63;;;10.40;;
21420;SDS011;10871;50.144;8.428;2022-08-19T07:08:11;11.48;;;10.35;;
21420;SDS011;10871;50.144;8.428;2022-08-19T07:10:41;14.93;;;10.13;;
21420;SDS011;10871;50.144;8.428;2022-08-19T07:13:08;12.07;;;10.18;;
21420;SDS011;10871;50.144;8.428;2022-08-19T07:15:35;10.43;;;9.43;;
21420;SDS011;10871;50.144;8.428;2022-08-19T07:18:05;11.75;;;9.60;;
21420;SDS011;10871;50.144;8.428;2022-08-19T07:20:31;11.43;;;10.32;;
21420;SDS011;10871;50.144;8.428;2022-08-19T07:22:59;10.50;;;8.55;;
21420;SDS011;10871;50.144;8.428;2022-08-19T07:25:26;9.55;;;8.52;;
21420;SDS011;10871;50.144;8.428;2022-08-19T07:27:58;7.85;;;7.10;;
21420;SDS011;10871;50.144;8.428;2022-08-19T07:30:27;10.20;;;9.25;;
21420;SDS011;10871;50.144;8.428;2022-08-19T07:32:54;9.70;;;8.65;;
21420;SDS011;10871;50.144;8.428;2022-08-19T07:35:22;8.40;;;7.70;;
21420;SDS011;10871;50.144;8.428;2022-08-19T07:37:49;8.38;;;7.50;;
21420;SDS011;10871;50.144;8.428;2022-08-19T07:40:16;8.60;;;6.38;;
21420;SDS011;10871;50.144;8.428;2022-08-19T07:42:42;7.88;;;7.07;;
21420;SDS011;10871;50.144;8.428;2022-08-19T07:45:09;8.05;;;7.20;;
21420;SDS011;10871;50.144;8.428;2022-08-19T07:47:36;8.13;;;7.03;;
21420;SDS011;10871;50.144;8.428;2022-08-19T07:50:18;7.80;;;7.10;;
21420;SDS011;10871;50.144;8.428;2022-08-19T07:52:46;7.95;;;7.22;;
21420;SDS011;10871;50.144;8.428;2022-08-19T07:55:15;9.35;;;8.30;;
21420;SDS011;10871;50.144;8.428;2022-08-19T07:58:01;8.77;;;8.00;;
21420;SDS011;10871;50.144;8.428;2022-08-19T08:00:30;9.10;;;8.18;;
21420;SDS011;10871;50.144;8.428;2022-08-19T08:02:56;9.15;;;8.30;;
21420;SDS011;10871;50.144;8.428;2022-08-19T08:05:23;8.70;;;7.97;;
21420;SDS011;10871;50.144;8.428;2022-08-19T08:08:09;8.48;;;7.68;;
21420;SDS011;10871;50.144;8.428;2022-08-19T08:10:55;8.50;;;7.70;;
21420;SDS011;10871;50.144;8.428;2022-08-19T08:13:23;8.90;;;7.70;;
21420;SDS011;10871;50.144;8.428;2022-08-19T08:15:49;9.68;;;8.68;;
21420;SDS011;10871;50.144;8.428;2022-08-19T08:18:18;9.55;;;8.18;;
21420;SDS011;10871;50.144;8.428;2022-08-19T08:20:44;9.60;;;8.60;;
21420;SDS011;10871;50.144;8.428;2022-08-19T08:23:11;10.27;;;9.25;;
21420;SDS011;10871;50.144;8.428;2022-08-19T08:25:53;9.90;;;8.90;;
21420;SDS011;10871;50.144;8.428;2022-08-19T08:28:20;10.55;;;9.63;;
21420;SDS011;10871;50.144;8.428;2022-08-19T08:30:47;12.18;;;11.05;;
21420;SDS011;10871;50.144;8.428;2022-08-19T08:33:20;12.20;;;10.40;;
21420;SDS011;10871;50.144;8.428;2022-08-19T08:38:25;10.90;;;9.80;;
21420;SDS011;10871;50.144;8.428;2022-08-19T08:40:54;14.52;;;13.13;;
21420;SDS011;10871;50.144;8.428;2022-08-19T08:48:31;13.10;;;11.80;;
21420;SDS011;10871;50.144;8.428;2022-08-19T08:50:59;14.05;;;12.73;;
21420;SDS011;10871;50.144;8.428;2022-08-19T08:53:30;14.93;;;13.43;;
21420;SDS011;10871;50.144;8.428;2022-08-19T08:56:01;13.88;;;12.60;;
21420;SDS011;10871;50.144;8.428;2022-08-19T08:58:29;14.65;;;13.15;;
21420;SDS011;10871;50.144;8.428;2022-08-19T09:00:57;14.73;;;13.25;;
21420;SDS011;10871;50.144;8.428;2022-08-19T09:03:27;14.38;;;13.00;;
21420;SDS011;10871;50.144;8.428;2022-08-19T09:10:53;12.02;;;10.93;;
21420;SDS011;10871;50.144;8.428;2022-08-19T09:15:50;11.35;;;10.25;;
21420;SDS011;10871;50.144;8.428;2022-08-19T09:18:18;11.68;;;10.57;;
21420;SDS011;10871;50.144;8.428;2022-08-19T09:20:45;11.48;;;10.43;;
21420;SDS011;10871;50.144;8.428;2022-08-19T09:23:13;13.25;;;12.05;;
21420;SDS011;10871;50.144;8.428;2022-08-19T09:25:39;12.38;;;11.07;;
21420;SDS011;10871;50.144;8.428;2022-08-19T09:28:06;11.63;;;10.63;;
21420;SDS011;10871;50.144;8.428;2022-08-19T09:30:48;11.45;;;10.35;;
21420;SDS011;10871;50.144;8.428;2022-08-19T09:33:14;10.90;;;10.00;;
21420;SDS011;10871;50.144;8.428;2022-08-19T09:35:42;11.05;;;10.13;;
21420;SDS011;10871;50.144;8.428;2022-08-19T09:38:19;8.52;;;7.65;;
21420;SDS011;10871;50.144;8.428;2022-08-19T09:40:46;10.23;;;9.23;;
21420;SDS011;10871;50.144;8.428;2022-08-19T09:43:12;9.90;;;9.10;;
21420;SDS011;10871;50.144;8.428;2022-08-19T09:45:38;10.27;;;8.88;;
21420;SDS011;10871;50.144;8.428;2022-08-19T09:48:05;10.20;;;9.40;;
21420;SDS011;10871;50.144;8.428;2022-08-19T09:50:32;8.90;;;8.05;;
21420;SDS011;10871;50.144;8.428;2022-08-19T09:53:00;9.60;;;8.82;;
21420;SDS011;10871;50.144;8.428;2022-08-19T09:55:26;9.13;;;8.27;;
21420;SDS011;10871;50.144;8.428;2022-08-19T09:57:57;10.93;;;9.93;;
21420;SDS011;10871;50.144;8.428;2022-08-19T10:00:24;11.43;;;10.20;;
21420;SDS011;10871;50.144;8.428;2022-08-19T10:02:50;10.80;;;9.90;;
21420;SDS011;10871;50.144;8.428;2022-08-19T10:05:18;10.27;;;8.68;;
21420;SDS011;10871;50.144;8.428;2022-08-19T10:08:07;11.20;;;10.20;;
21420;SDS011;10871;50.144;8.428;2022-08-19T10:10:39;12.27;;;11.15;;
21420;SDS011;10871;50.144;8.428;2022-08-19T10:13:08;13.43;;;12.15;;
21420;SDS011;10871;50.144;8.428;2022-08-19T10:15:35;12.40;;;11.20;;
21420;SDS011;10871;50.144;8.428;2022-08-19T10:18:13;13.50;;;12.18;;
21420;SDS011;10871;50.144;8.428;2022-08-19T10:20:40;13.73;;;12.52;;
21420;SDS011;10871;50.144;8.428;2022-08-19T10:23:08;13.43;;;12.23;;
21420;SDS011;10871;50.144;8.428;2022-08-19T10:25:35;11.70;;;10.70;;
21420;SDS011;10871;50.144;8.428;2022-08-19T10:28:03;12.27;;;11.15;;
21420;SDS011;10871;50.144;8.428;2022-08-19T10:30:36;15.02;;;13.70;;
21420;SDS011;10871;50.144;8.428;2022-08-19T10:33:03;15.00;;;13.68;;
21420;SDS011;10871;50.144;8.428;2022-08-19T10:35:36;14.00;;;12.57;;
21420;SDS011;10871;50.144;8.428;2022-08-19T10:38:22;14.15;;;12.73;;
21420;SDS011;10871;50.144;8.428;2022-08-19T10:40:57;13.02;;;11.93;;
21420;SDS011;10871;50.144;8.428;2022-08-19T10:43:23;12.95;;;11.75;;
21420;SDS011;10871;50.144;8.428;2022-08-19T10:45:54;13.15;;;11.98;;
21420;SDS011;10871;50.144;8.428;2022-08-19T10:48:25;14.02;;;12.82;;
21420;SDS011;10871;50.144;8.428;2022-08-19T10:50:52;14.52;;;13.32;;
21420;SDS011;10871;50.144;8.428;2022-08-19T10:53:48;14.55;;;13.27;;
21420;SDS011;10871;50.144;8.428;2022-08-19T10:56:14;14.10;;;12.80;;
21420;SDS011;10871;50.144;8.428;2022-08-19T10:58:59;14.18;;;12.88;;
21420;SDS011;10871;50.144;8.428;2022-08-19T11:01:26;12.68;;;11.45;;
21420;SDS011;10871;50.144;8.428;2022-08-19T11:03:53;12.45;;;11.20;;
21420;SDS011;10871;50.144;8.428;2022-08-19T11:06:19;10.93;;;9.88;;
21420;SDS011;10871;50.144;8.428;2022-08-19T11:08:46;11.07;;;10.18;;
21420;SDS011;10871;50.144;8.428;2022-08-19T11:11:12;11.48;;;10.27;;
21420;SDS011;10871;50.144;8.428;2022-08-19T11:13:40;10.63;;;9.73;;
21420;SDS011;10871;50.144;8.428;2022-08-19T11:16:08;10.75;;;9.60;;
21420;SDS011;10871;50.144;8.428;2022-08-19T11:18:35;11.25;;;10.20;;
21420;SDS011;10871;50.144;8.428;2022-08-19T11:21:06;11.20;;;10.20;;
21420;SDS011;10871;50.144;8.428;2022-08-19T11:23:33;9.95;;;9.05;;
21420;SDS011;10871;50.144;8.428;2022-08-19T11:25:59;9.32;;;8.57;;
21420;SDS011;10871;50.144;8.428;2022-08-19T11:28:27;9.30;;;8.38;;
21420;SDS011;10871;50.144;8.428;2022-08-19T11:30:54;9.30;;;8.48;;
21420;SDS011;10871;50.144;8.428;2022-08-19T11:33:20;10.93;;;8.88;;
21420;SDS011;10871;50.144;8.428;2022-08-19T11:35:46;8.70;;;7.90;;
21420;SDS011;10871;50.144;8.428;2022-08-19T11:38:13;7.20;;;6.50;;
21420;SDS011;10871;50.144;8.428;2022-08-19T11:40:40;6.85;;;6.25;;
21420;SDS011;10871;50.144;8.428;2022-08-19T11:43:08;7.30;;;6.60;;
21420;SDS011;10871;50.144;8.428;2022-08-19T11:45:35;6.22;;;5.68;;
21420;SDS011;10871;50.144;8.428;2022-08-19T11:48:02;5.20;;;4.80;;
21420;SDS011;10871;50.144;8.428;2022-08-19T11:50:28;5.78;;;5.28;;
21420;SDS011;10871;50.144;8.428;2022-08-19T11:52:55;5.13;;;4.72;;
21420;SDS011;10871;50.144;8.428;2022-08-19T11:55:22;6.15;;;5.55;;
21420;SDS011;10871;50.144;8.428;2022-08-19T11:57:49;8.00;;;6.30;;
21420;SDS011;10871;50.144;8.428;2022-08-19T12:00:16;7.28;;;5.78;;
21420;SDS011;10871;50.144;8.428;2022-08-19T12:02:42;5.70;;;5.28;;
21420;SDS011;10871;50.144;8.428;2022-08-19T12:05:09;6.18;;;5.57;;
21420;SDS011;10871;50.144;8.428;2022-08-19T12:07:38;6.30;;;5.10;;
21420;SDS011;10871;50.144;8.428;2022-08-19T12:10:05;5.93;;;5.43;;
21420;SDS011;10871;50.144;8.428;2022-08-19T12:12:33;5.78;;;5.22;;
21420;SDS011;10871;50.144;8.428;2022-08-19T12:15:00;6.20;;;5.60;;
21420;SDS011;10871;50.144;8.428;2022-08-19T12:17:26;6.90;;;6.13;;
21420;SDS011;10871;50.144;8.428;2022-08-19T12:19:53;5.78;;;5.35;;
21420;SDS011;10871;50.144;8.428;2022-08-19T12:22:20;6.13;;;5.53;;
21420;SDS011;10871;50.144;8.428;2022-08-19T12:24:47;7.53;;;5.55;;
21420;SDS011;10871;50.144;8.428;2022-08-19T12:27:16;6.25;;;5.65;;
21420;SDS011;10871;50.144;8.428;2022-08-19T12:30:03;5.15;;;4.75;;
21420;SDS011;10871;50.144;8.428;2022-08-19T12:32:30;6.03;;;5.55;;
21420;SDS011;10871;50.144;8.428;2022-08-19T12:34:56;6.35;;;4.88;;
21420;SDS011;10871;50.144;8.428;2022-08-19T12:37:22;5.25;;;4.75;;
21420;SDS011;10871;50.144;8.428;2022-08-19T12:39:49;4.57;;;4.18;;
21420;SDS011;10871;50.144;8.428;2022-08-19T12:42:15;5.80;;;5.30;;
21420;SDS011;10871;50.144;8.428;2022-08-19T12:44:42;3.80;;;3.50;;
21420;SDS011;10871;50.144;8.428;2022-08-19T12:47:11;5.18;;;4.47;;
21420;SDS011;10871;50.144;8.428;2022-08-19T12:49:38;5.07;;;4.57;;
21420;SDS011;10871;50.144;8.428;2022-08-19T12:52:20;4.80;;;4.32;;
21420;SDS011;10871;50.144;8.428;2022-08-19T12:54:48;5.00;;;3.85;;
21420;SDS011;10871;50.144;8.428;2022-08-19T12:57:20;5.25;;;3.75;;
21420;SDS011;10871;50.144;8.428;2022-08-19T12:59:51;4.60;;;4.20;;
21420;SDS011;10871;50.144;8.428;2022-08-19T13:02:17;4.60;;;3.80;;
21420;SDS011;10871;50.144;8.428;2022-08-19T13:04:44;5.68;;;4.70;;
21420;SDS011;10871;50.144;8.428;2022-08-19T13:07:10;7.45;;;5.78;;
21420;SDS011;10871;50.144;8.428;2022-08-19T13:09:37;4.95;;;4.55;;
21420;SDS011;10871;50.144;8.428;2022-08-19T13:12:03;4.88;;;4.53;;
21420;SDS011;10871;50.144;8.428;2022-08-19T13:14:34;5.47;;;4.90;;
21420;SDS011;10871;50.144;8.428;2022-08-19T13:17:02;4.95;;;4.40;;
21420;SDS011;10871;50.144;8.428;2022-08-19T13:19:28;5.22;;;4.72;;
21420;SDS011;10871;50.144;8.428;2022-08-19T13:21:56;6.18;;;4.40;;
21420;SDS011;10871;50.144;8.428;2022-08-19T13:24:25;4.53;;;4.13;;
21420;SDS011;10871;50.144;8.428;2022-08-19T13:27:02;4.50;;;4.10;;
21420;SDS011;10871;50.144;8.428;2022-08-19T13:29:28;4.30;;;3.90;;
21420;SDS011;10871;50.144;8.428;2022-08-19T13:32:13;3.95;;;3.60;;
21420;SDS011;10871;50.144;8.428;2022-08-19T13:34:58;5.72;;;4.47;;
21420;SDS011;10871;50.144;8.428;2022-08-19T13:37:24;6.20;;;4.00;;
21420;SDS011;10871;50.144;8.428;2022-08-19T13:40:17;5.50;;;3.70;;
21420;SDS011;10871;50.144;8.428;2022-08-19T13:42:45;4.13;;;3.70;;
21420;SDS011;10871;50.144;8.428;2022-08-19T13:45:13;4.40;;;4.00;;
21420;SDS011;10871;50.144;8.428;2022-08-19T13:47:40;5.45;;;3.80;;
21420;SDS011;10871;50.144;8.428;2022-08-19T13:50:09;6.18;;;4.32;;
21420;SDS011;10871;50.144;8.428;2022-08-19T13:52:37;7.95;;;4.30;;
21420;SDS011;10871;50.144;8.428;2022-08-19T13:55:04;5.93;;;4.20;;
21420;SDS011;10871;50.144;8.428;2022-08-19T13:57:31;4.95;;;4.18;;
21420;SDS011;10871;50.144;8.428;2022-08-19T13:59:58;4.30;;;3.90;;
21420;SDS011;10871;50.144;8.428;2022-08-19T14:02:24;5.43;;;4.20;;
21420;SDS011;10871;50.144;8.428;2022-08-19T14:04:51;4.50;;;4.10;;
21420;SDS011;10871;50.144;8.428;2022-08-19T14:07:17;4.75;;;4.35;;
21420;SDS011;10871;50.144;8.428;2022-08-19T14:09:43;6.10;;;5.10;;
21420;SDS011;10871;50.144;8.428;2022-08-19T14:12:12;5.85;;;4.50;;
21420;SDS011;10871;50.144;8.428;2022-08-19T14:14:39;6.00;;;4.68;;
21420;SDS011;10871;50.144;8.428;2022-08-19T14:17:06;5.85;;;4.78;;
21420;SDS011;10871;50.144;8.428;2022-08-19T14:19:32;4.50;;;4.07;;
21420;SDS011;10871;50.144;8.428;2022-08-19T14:21:59;5.90;;;4.65;;
21420;SDS011;10871;50.144;8.428;2022-08-19T14:24:25;5.82;;;4.30;;
21420;SDS011;10871;50.144;8.428;2022-08-19T14:26:53;5.95;;;4.65;;
21420;SDS011;10871;50.144;8.428;2022-08-19T14:29:19;5.90;;;4.60;;
21420;SDS011;10871;50.144;8.428;2022-08-19T14:31:46;5.20;;;4.72;;
21420;SDS011;10871;50.144;8.428;2022-08-19T14:34:12;5.22;;;3.95;;
21420;SDS011;10871;50.144;8.428;2022-08-19T14:36:38;4.88;;;4.45;;
21420;SDS011;10871;50.144;8.428;2022-08-19T14:39:05;10.73;;;4.47;;
21420;SDS011;10871;50.144;8.428;2022-08-19T14:41:31;4.57;;;4.15;;
21420;SDS011;10871;50.144;8.428;2022-08-19T14:43:58;4.25;;;3.85;;
21420;SDS011;10871;50.144;8.428;2022-08-19T14:46:27;7.72;;;3.90;;
21420;SDS011;10871;50.144;8.428;2022-08-19T14:48:56;4.20;;;3.80;;
21420;SDS011;10871;50.144;8.428;2022-08-19T14:51:25;5.55;;;3.80;;
21420;SDS011;10871;50.144;8.428;2022-08-19T14:53:52;5.15;;;3.80;;
21420;SDS011;10871;50.144;8.428;2022-08-19T14:56:20;4.40;;;4.00;;
21420;SDS011;10871;50.144;8.428;2022-08-19T14:58:47;5.05;;;4.55;;